Time;durP1;ratioP1;P1;durP2;ratioP2;P2;SDS_P1;SDS_P2;PMS_P1;PMS_P2;Temp;Humidity;BMP_temperature;BMP_pressure;BME280_temperature;BME280_humidity;BME280_pressure;Samples;Min_cycle;Max_cycle;Signal;HPM_P1;HPM_P2
2022/06/22 00:02:24;;;;;;;3.80;3.50;;;;;;;24.62;61.38;98059.72;5089041;27;103204;-73
2022/06/22 00:04:57;;;;;;;3.83;3.53;;;;;;;24.63;61.82;98056.00;5086758;27;102895;-74
2022/06/22 00:07:31;;;;;;;4.30;3.90;;;;;;;24.64;61.30;98049.56;5078058;27;104285;-73
2022/06/22 00:10:07;;;;;;;3.78;3.47;;;;;;;24.64;61.18;98046.88;5101889;27;103386;-73
2022/06/22 00:12:35;;;;;;;3.83;3.33;;;;;;;24.64;61.47;98044.16;5102923;27;103210;-73
2022/06/22 00:15:21;;;;;;;3.57;3.27;;;;;;;24.62;61.50;98032.72;5095146;27;102926;-72
2022/06/22 00:17:50;;;;;;;3.88;3.58;;;;;;;24.61;61.92;98024.84;5079478;27;103034;-73
2022/06/22 00:20:23;;;;;;;6.25;5.13;;;;;;;24.20;64.32;98022.53;5079643;27;104591;-73
2022/06/22 00:22:54;;;;;;;5.00;4.47;;;;;;;24.08;64.43;98013.44;5097454;27;103309;-75
2022/06/22 00:25:34;;;;;;;6.10;5.50;;;;;;;23.33;66.49;98011.22;5097874;27;102672;-73
2022/06/22 00:28:27;;;;;;;5.22;4.72;;;;;;;23.47;65.82;98004.81;5077983;27;103487;-73
2022/06/22 00:31:05;;;;;;;5.63;5.13;;;;;;;23.58;64.94;97996.09;5094144;27;103195;-73
2022/06/22 00:33:33;;;;;;;4.77;4.27;;;;;;;23.75;65.20;97989.22;5101473;27;103738;-73
2022/06/22 00:36:15;;;;;;;4.70;4.30;;;;;;;23.97;64.33;97979.00;5102661;27;102837;-73
2022/06/22 00:38:44;;;;;;;4.57;4.17;;;;;;;24.05;63.75;97981.47;5098028;27;102921;-73
2022/06/22 00:41:18;;;;;;;4.23;3.93;;;;;;;24.05;64.29;97973.38;5087412;27;103411;-73
2022/06/22 00:43:47;;;;;;;4.65;4.35;;;;;;;24.02;64.34;97980.03;5099918;27;103525;-73
2022/06/22 00:46:19;;;;;;;5.40;4.90;;;;;;;23.39;66.12;97987.00;5097853;27;103011;-73
2022/06/22 00:48:50;;;;;;;5.85;5.25;;;;;;;22.55;69.00;97991.22;5081978;27;103166;-73
2022/06/22 00:51:22;;;;;;;6.75;5.15;;;;;;;22.54;69.08;97992.25;5083513;27;103504;-71
2022/06/22 00:53:58;;;;;;;6.00;4.93;;;;;;;23.05;67.15;97993.41;5100105;27;103223;-73
2022/06/22 00:56:42;;;;;;;5.85;5.32;;;;;;;22.76;68.05;98003.75;5106254;27;103100;-74
2022/06/22 00:59:23;;;;;;;6.25;5.18;;;;;;;22.88;67.01;98010.16;5106474;27;102684;-73
2022/06/22 01:01:56;;;;;;;3.95;3.65;;;;;;;23.40;65.16;98012.94;5098330;27;103814;-72
2022/06/22 01:04:29;;;;;;;4.38;3.97;;;;;;;23.54;64.57;98017.28;5096293;27;103146;-74
2022/06/22 01:07:03;;;;;;;4.30;3.78;;;;;;;23.72;63.93;98023.88;5098808;27;102800;-74
2022/06/22 01:09:38;;;;;;;4.60;4.17;;;;;;;23.71;65.21;98024.91;5075761;27;102914;-71
2022/06/22 01:12:22;;;;;;;5.75;5.18;;;;;;;23.34;67.35;98035.28;5096047;27;103458;-72
2022/06/22 01:15:04;;;;;;;6.47;5.65;;;;;;;22.48;70.54;98042.34;5095510;27;103350;-73
2022/06/22 01:17:39;;;;;;;6.93;5.72;;;;;;;22.31;71.38;98035.66;5077556;27;104261;-73
2022/06/22 01:20:13;;;;;;;5.97;5.38;;;;;;;22.61;70.67;98051.50;5084467;27;102714;-74
2022/06/22 01:22:58;;;;;;;5.38;4.32;;;;;;;23.01;68.72;98058.69;5093414;27;104003;-72
2022/06/22 01:25:45;;;;;;;6.28;5.43;;;;;;;22.83;68.87;98055.72;5092225;27;103169;-72
2022/06/22 01:28:15;;;;;;;5.90;5.30;;;;;;;22.83;68.88;98051.19;5096144;27;102525;-73
2022/06/22 01:30:48;;;;;;;5.72;5.25;;;;;;;22.71;68.68;98054.69;5095868;27;104802;-74
2022/06/22 01:33:20;;;;;;;3.97;3.60;;;;;;;23.01;67.14;98047.91;5077831;27;104012;-72
2022/06/22 01:35:53;;;;;;;3.70;3.40;;;;;;;23.25;65.40;98044.59;5094239;27;103258;-73
2022/06/22 01:38:24;;;;;;;4.80;4.40;;;;;;;23.32;66.03;98040.06;5077971;27;102679;-72
2022/06/22 01:41:03;;;;;;;3.93;3.63;;;;;;;23.45;65.30;98033.84;5083640;27;104246;-72
2022/06/22 01:43:37;;;;;;;4.93;4.53;;;;;;;23.43;66.52;98031.38;5095784;27;103867;-72
2022/06/22 01:46:13;;;;;;;5.15;4.65;;;;;;;23.40;66.79;98026.41;5104394;27;103155;-72
2022/06/22 01:48:46;;;;;;;4.70;4.30;;;;;;;23.29;67.20;98032.38;5076812;27;102817;-71
2022/06/22 01:51:21;;;;;;;3.90;3.60;;;;;;;23.39;66.10;98027.44;5096211;27;102947;-69
2022/06/22 01:53:53;;;;;;;5.03;4.47;;;;;;;23.42;66.03;98035.09;5077981;27;103127;-72
2022/06/22 01:56:29;;;;;;;4.82;4.43;;;;;;;23.37;67.22;98039.44;5094714;27;103176;-73
2022/06/22 01:59:11;;;;;;;6.30;5.70;;;;;;;23.16;68.69;98040.44;5094643;27;102859;-73
2022/06/22 02:01:47;;;;;;;5.50;4.93;;;;;;;22.94;68.75;98030.88;5097076;27;103598;-73
2022/06/22 02:04:25;;;;;;;4.57;4.17;;;;;;;23.15;67.81;98036.09;5084057;27;103725;-71
2022/06/22 02:10:00;;;;;;;4.10;3.70;;;;;;;23.35;66.86;98020.78;5094606;27;102983;-73
2022/06/22 02:12:42;;;;;;;5.23;4.83;;;;;;;23.28;68.01;98017.25;5096106;27;102839;-72
2022/06/22 02:15:21;;;;;;;5.40;5.00;;;;;;;23.23;68.20;98018.91;5098006;27;103350;-71
2022/06/22 02:17:52;;;;;;;6.20;5.70;;;;;;;23.14;69.09;98020.97;5097815;27;103267;-72
2022/06/22 02:20:42;;;;;;;7.57;6.38;;;;;;;22.54;71.83;98028.06;5078840;27;103188;-72
2022/06/22 02:23:20;;;;;;;8.02;6.60;;;;;;;22.33;72.99;98028.22;5099646;27;103028;-72
2022/06/22 02:26:11;;;;;;;9.30;7.22;;;;;;;21.93;75.51;98032.56;5098727;27;103310;-72
2022/06/22 02:28:43;;;;;;;8.60;7.32;;;;;;;21.62;77.30;98024.06;5076147;27;103381;-72
2022/06/22 02:31:12;;;;;;;7.72;7.00;;;;;;;22.25;75.02;98027.56;5104739;27;102891;-72
2022/06/22 02:33:44;;;;;;;7.03;6.35;;;;;;;22.33;74.70;98038.97;5100106;27;103927;-73
2022/06/22 02:36:14;;;;;;;8.65;7.82;;;;;;;21.53;77.31;98043.25;5099220;27;103466;-72
2022/06/22 02:38:45;;;;;;;7.47;6.78;;;;;;;21.78;76.56;98033.69;5104393;27;103374;-73
2022/06/22 02:46:59;;;;;;;8.23;7.53;;;;;;;22.18;73.18;98008.69;5013590;28;103392;-73
2022/06/22 02:49:33;;;;;;;8.30;7.47;;;;;;;22.11;72.96;98010.53;5080217;27;103228;-73
2022/06/22 02:52:04;;;;;;;6.60;6.00;;;;;;;22.64;71.15;97994.59;5096637;27;102793;-74
2022/06/22 02:54:35;;;;;;;5.70;5.10;;;;;;;22.91;70.13;98009.75;5073154;27;103434;-74
2022/06/22 02:57:17;;;;;;;7.03;6.43;;;;;;;22.91;70.14;98012.44;5099609;27;103255;-73
2022/06/22 02:59:47;;;;;;;7.03;6.25;;;;;;;22.96;70.20;98031.53;5095640;27;103397;-74
2022/06/22 03:02:17;;;;;;;5.50;5.10;;;;;;;23.17;70.10;98025.94;5095403;27;103660;-75
2022/06/22 03:04:47;;;;;;;5.47;4.97;;;;;;;23.30;70.21;98044.00;5100003;27;102662;-75
2022/06/22 03:07:17;;;;;;;5.57;5.15;;;;;;;23.32;70.07;98034.66;5099462;27;103567;-73
2022/06/22 03:09:47;;;;;;;5.87;5.40;;;;;;;23.34;70.18;98029.91;5099408;27;103216;-73
2022/06/22 03:12:17;;;;;;;5.80;5.30;;;;;;;23.18;70.65;98022.22;5094259;27;103364;-74
2022/06/22 03:14:53;;;;;;;6.17;5.63;;;;;;;23.31;70.49;98022.22;5072669;27;103100;-74
2022/06/22 03:17:27;;;;;;;4.80;4.40;;;;;;;23.31;69.53;98019.53;5097079;27;103422;-74
2022/06/22 03:20:00;;;;;;;4.47;4.17;;;;;;;23.36;69.63;98022.41;5078801;27;103274;-73
2022/06/22 03:22:31;;;;;;;7.32;6.63;;;;;;;23.30;69.63;98015.16;5087095;27;102756;-74
2022/06/22 03:25:06;;;;;;;7.80;6.88;;;;;;;23.09;71.13;98012.69;5075430;27;102702;-74
2022/06/22 03:27:39;;;;;;;8.03;7.23;;;;;;;22.31;72.84;98003.38;5073587;27;104223;-75
2022/06/22 03:30:14;;;;;;;7.20;6.50;;;;;;;22.57;71.91;98008.00;5093305;27;103380;-73
2022/06/22 03:32:50;;;;;;;8.00;7.20;;;;;;;22.43;72.59;98012.50;5092655;27;102818;-73
2022/06/22 03:35:23;;;;;;;8.15;7.45;;;;;;;22.34;72.59;98013.72;5092884;27;103235;-74
2022/06/22 03:37:57;;;;;;;7.10;6.50;;;;;;;22.62;71.49;98004.72;5094285;27;103855;-75
2022/06/22 03:40:32;;;;;;;6.82;6.13;;;;;;;22.82;70.56;98008.31;5097962;27;103220;-74
2022/06/22 03:43:07;;;;;;;8.73;7.93;;;;;;;21.76;73.95;98015.06;5101123;27;102887;-75
2022/06/22 03:45:41;;;;;;;8.27;7.47;;;;;;;21.68;75.55;98019.75;5094239;27;102800;-76
2022/06/22 03:48:16;;;;;;;10.15;8.02;;;;;;;21.47;76.73;98038.66;5095237;27;103298;-76
2022/06/22 03:50:52;;;;;;;8.20;7.40;;;;;;;21.66;76.27;98030.72;5091347;27;103093;-73
2022/06/22 03:53:25;;;;;;;6.63;6.10;;;;;;;22.18;73.76;98032.91;5086415;27;102900;-73
2022/06/22 03:55:59;;;;;;;6.20;5.70;;;;;;;22.50;71.99;98040.28;5095123;27;102777;-73
2022/06/22 03:58:27;;;;;;;6.40;5.23;;;;;;;22.68;71.49;98041.63;5073983;27;103379;-73
2022/06/22 04:00:55;;;;;;;6.88;6.28;;;;;;;22.48;71.80;98041.53;5074673;27;103228;-73
2022/06/22 04:03:25;;;;;;;6.00;5.40;;;;;;;22.75;70.72;98042.47;5088781;27;102992;-73
2022/06/22 04:05:56;;;;;;;4.70;4.30;;;;;;;22.87;69.13;98040.84;5097134;27;103879;-73
2022/06/22 04:08:27;;;;;;;6.88;6.18;;;;;;;22.86;68.92;98048.06;5093729;27;104120;-72
2022/06/22 04:10:58;;;;;;;5.90;5.40;;;;;;;22.87;70.09;98041.66;5096048;27;103022;-73
2022/06/22 04:13:32;;;;;;;6.07;5.50;;;;;;;22.81;70.54;98044.34;5101448;27;103138;-73
2022/06/22 04:16:05;;;;;;;6.63;6.13;;;;;;;22.58;71.13;98046.50;5099675;27;103998;-74
2022/06/22 04:18:41;;;;;;;8.77;6.72;;;;;;;22.57;71.10;98050.25;5092606;27;104195;-74
2022/06/22 04:21:23;;;;;;;7.15;6.25;;;;;;;22.20;72.31;98055.06;5090973;27;102937;-72
2022/06/22 04:23:54;;;;;;;6.75;6.15;;;;;;;22.47;72.01;98051.47;5059425;27;102944;-72
2022/06/22 04:26:26;;;;;;;8.45;7.65;;;;;;;22.26;72.94;98048.06;5023195;27;103662;-76
2022/06/22 04:29:00;;;;;;;7.03;6.40;;;;;;;22.54;71.97;98046.91;5059484;27;103274;-71
2022/06/22 04:31:32;;;;;;;8.70;7.90;;;;;;;22.14;74.03;98045.09;5044585;27;103140;-71
2022/06/22 04:34:06;;;;;;;9.15;8.18;;;;;;;21.63;76.53;98051.78;5067410;27;102985;-72
2022/06/22 04:36:38;;;;;;;8.30;7.50;;;;;;;21.81;76.45;98044.06;5059359;27;104054;-73
2022/06/22 04:39:15;;;;;;;9.07;7.82;;;;;;;22.04;76.17;98050.00;5045196;27;103349;-72
2022/06/22 04:41:44;;;;;;;7.20;6.40;;;;;;;22.33;74.76;98048.91;5050240;27;103220;-73
2022/06/22 04:44:17;;;;;;;5.60;5.10;;;;;;;22.77;72.52;98049.28;5064964;27;102851;-72
2022/06/22 04:46:49;;;;;;;7.13;6.53;;;;;;;22.92;71.83;98049.97;5054297;27;103827;-73
2022/06/22 04:49:23;;;;;;;5.55;5.05;;;;;;;23.14;71.43;98057.84;5052369;27;103327;-73
2022/06/22 04:51:55;;;;;;;5.00;4.60;;;;;;;23.33;70.18;98055.19;5063988;27;103219;-73
2022/06/22 04:54:28;;;;;;;6.30;5.70;;;;;;;23.44;70.47;98056.44;5042808;27;102996;-72
2022/06/22 04:57:05;;;;;;;7.50;6.83;;;;;;;23.40;69.90;98057.91;5065884;27;102554;-74
2022/06/22 04:59:34;;;;;;;5.30;4.90;;;;;;;23.58;69.16;98060.78;5069067;27;103366;-73
2022/06/22 05:02:05;;;;;;;4.70;4.30;;;;;;;23.76;68.59;98065.56;5057797;27;103650;-77
2022/06/22 05:04:39;;;;;;;6.10;5.50;;;;;;;23.84;67.90;98068.88;5051775;27;102729;-75
2022/06/22 05:07:21;;;;;;;9.00;8.10;;;;;;;23.31;70.39;98065.34;5069002;27;102860;-74
2022/06/22 05:09:55;;;;;;;7.75;6.95;;;;;;;23.45;68.97;98061.66;5071579;27;103905;-75
2022/06/22 05:12:26;;;;;;;6.47;5.97;;;;;;;23.61;67.49;98061.22;5070763;27;103386;-74
2022/06/22 05:14:58;;;;;;;6.13;5.53;;;;;;;23.74;67.83;98056.84;5064615;27;102532;-76
2022/06/22 05:17:29;;;;;;;5.20;4.80;;;;;;;23.83;66.34;98063.69;5057737;27;103480;-73
2022/06/22 05:20:05;;;;;;;6.40;5.90;;;;;;;23.71;66.08;98060.81;5040566;27;104147;-73
2022/06/22 05:22:33;;;;;;;7.00;6.40;;;;;;;23.69;66.60;98067.44;5068210;27;103180;-74
2022/06/22 05:25:05;;;;;;;6.65;6.05;;;;;;;23.62;67.46;98068.28;5046930;27;103073;-74
2022/06/22 05:27:43;;;;;;;6.82;6.13;;;;;;;23.48;67.97;98068.47;5073031;27;102946;-74
2022/06/22 05:30:11;;;;;;;7.10;6.50;;;;;;;23.54;67.93;98070.34;5071996;27;103381;-78
2022/06/22 05:32:44;;;;;;;7.05;6.35;;;;;;;23.69;67.89;98073.69;5068361;27;103436;-72
2022/06/22 05:35:19;;;;;;;6.30;5.80;;;;;;;23.89;67.21;98079.06;5058411;27;103210;-71
2022/06/22 05:37:52;;;;;;;5.32;4.82;;;;;;;24.21;66.43;98080.88;5070144;27;102996;-73
2022/06/22 05:40:26;;;;;;;5.67;5.17;;;;;;;24.37;65.01;98082.25;5066188;27;104178;-73
2022/06/22 05:42:54;;;;;;;5.20;4.80;;;;;;;24.46;63.95;98076.41;5067159;27;103534;-74
2022/06/22 05:45:25;;;;;;;6.53;5.82;;;;;;;24.20;63.84;98088.13;5061183;27;103078;-74
2022/06/22 05:47:55;;;;;;;5.88;5.35;;;;;;;24.27;65.34;98081.88;5046858;27;102728;-73
2022/06/22 05:50:37;;;;;;;7.53;5.95;;;;;;;24.18;62.76;98094.78;5076171;27;104004;-75
2022/06/22 05:53:13;;;;;;;5.07;4.63;;;;;;;24.22;63.76;98096.03;5050202;27;103213;-75
2022/06/22 05:55:49;;;;;;;5.60;5.10;;;;;;;24.33;61.12;98091.84;5065030;27;102837;-75
2022/06/22 05:58:26;;;;;;;5.70;5.20;;;;;;;24.04;61.86;98090.41;5050172;27;103600;-75
2022/06/22 06:00:57;;;;;;;6.35;5.75;;;;;;;23.81;62.04;98084.63;5042655;27;102684;-75
2022/06/22 06:03:32;;;;;;;6.68;5.82;;;;;;;23.81;62.90;98087.34;5061847;27;103442;-75
2022/06/22 06:06:07;;;;;;;6.22;5.63;;;;;;;23.58;64.36;98083.19;5034173;27;103019;-75
2022/06/22 06:08:44;;;;;;;7.95;5.68;;;;;;;23.47;65.13;98093.78;5065815;27;102992;-74
2022/06/22 06:11:17;;;;;;;4.90;4.50;;;;;;;24.03;64.28;98096.84;5072264;27;103255;-76
2022/06/22 06:13:49;;;;;;;5.17;4.60;;;;;;;24.38;62.89;98106.34;5072256;27;103224;-75
2022/06/22 06:16:25;;;;;;;5.63;5.13;;;;;;;24.48;60.97;98114.81;5045167;27;102942;-74
2022/06/22 06:18:57;;;;;;;5.25;4.75;;;;;;;24.72;60.19;98116.81;5066061;27;103873;-74
2022/06/22 06:21:32;;;;;;;5.90;4.57;;;;;;;24.80;59.79;98121.19;5058629;27;103264;-76
2022/06/22 06:24:04;;;;;;;5.65;5.10;;;;;;;24.86;60.00;98127.59;5040782;27;103190;-75
2022/06/22 06:29:32;;;;;;;6.10;4.90;;;;;;;24.86;60.81;98127.59;5079985;27;103897;-75
2022/06/22 06:32:23;;;;;;;4.90;4.50;;;;;;;25.05;61.39;98134.78;5061792;27;104519;-75
2022/06/22 06:34:56;;;;;;;6.13;5.53;;;;;;;25.09;60.98;98130.59;5064099;27;103186;-74
2022/06/22 06:37:44;;;;;;;6.10;5.50;;;;;;;24.93;61.45;98136.47;5069675;27;102662;-75
2022/06/22 06:40:18;;;;;;;7.45;6.20;;;;;;;24.52;61.65;98143.06;5064016;27;103647;-75
2022/06/22 06:42:57;;;;;;;6.05;5.43;;;;;;;24.71;61.05;98139.47;5049259;27;103215;-74
2022/06/22 06:45:29;;;;;;;6.43;5.50;;;;;;;24.75;60.77;98148.81;5046543;27;103678;-75
2022/06/22 06:48:02;;;;;;;6.85;5.80;;;;;;;24.62;60.75;98146.13;5063650;27;102539;-75
2022/06/22 06:50:36;;;;;;;6.33;4.40;;;;;;;25.15;59.87;98152.16;5056823;27;102819;-75
2022/06/22 06:53:17;;;;;;;6.03;5.53;;;;;;;24.89;59.73;98156.88;5073727;27;104836;-75
2022/06/22 06:55:50;;;;;;;6.18;5.30;;;;;;;24.48;60.49;98162.59;5067165;27;102987;-75
2022/06/22 06:58:30;;;;;;;5.53;4.95;;;;;;;24.58;61.13;98152.19;5055878;27;102612;-74
2022/06/22 07:00:58;;;;;;;5.17;4.50;;;;;;;24.63;61.55;98158.63;5068337;27;102863;-75
2022/06/22 07:03:29;;;;;;;6.47;5.50;;;;;;;24.68;61.97;98157.97;5067344;27;103300;-75
2022/06/22 07:05:57;;;;;;;7.10;6.40;;;;;;;24.38;62.24;98160.34;5045232;27;103501;-74
2022/06/22 07:08:32;;;;;;;10.18;6.55;;;;;;;24.41;63.31;98159.91;5068843;27;102689;-73
2022/06/22 07:11:15;;;;;;;6.30;5.50;;;;;;;24.40;64.51;98162.81;5072275;27;102920;-74
2022/06/22 07:13:48;;;;;;;7.78;6.90;;;;;;;23.97;65.87;98174.03;5050825;27;104198;-74
2022/06/22 07:16:20;;;;;;;6.57;5.97;;;;;;;24.20;67.13;98163.69;5068044;27;103138;-74
2022/06/22 07:18:54;;;;;;;5.70;5.20;;;;;;;24.53;68.55;98168.19;5065906;27;102883;-74
2022/06/22 07:21:29;;;;;;;7.35;6.65;;;;;;;24.56;69.80;98157.78;5046175;27;104159;-74
2022/06/22 07:24:07;;;;;;;5.57;5.07;;;;;;;24.78;68.33;98156.50;5063228;27;103604;-76
2022/06/22 07:26:48;;;;;;;7.13;6.45;;;;;;;24.76;70.00;98160.41;5072683;27;103229;-75
2022/06/22 07:29:23;;;;;;;8.20;6.27;;;;;;;24.82;67.62;98161.47;5070326;27;104403;-75
2022/06/22 07:31:59;;;;;;;8.45;7.47;;;;;;;24.40;70.29;98163.66;5063627;27;102801;-76
2022/06/22 07:34:31;;;;;;;7.00;6.20;;;;;;;24.16;73.30;98165.16;5066408;27;103496;-76
2022/06/22 07:37:08;;;;;;;9.35;8.32;;;;;;;23.75;74.72;98161.81;5062757;27;103140;-76
2022/06/22 07:39:43;;;;;;;9.05;8.07;;;;;;;23.46;73.75;98151.44;5046478;27;103023;-76
2022/06/22 07:42:13;;;;;;;10.30;9.40;;;;;;;22.77;79.28;98157.00;5072066;27;103145;-75
2022/06/22 07:44:42;;;;;;;9.70;8.80;;;;;;;22.73;80.72;98144.16;5074854;27;103880;-76
2022/06/22 07:47:16;;;;;;;9.60;8.67;;;;;;;22.86;79.04;98133.41;5064699;27;103031;-75
2022/06/22 07:49:52;;;;;;;8.88;7.97;;;;;;;23.08;80.10;98129.53;5045705;27;102770;-73
2022/06/22 07:52:25;;;;;;;8.65;7.78;;;;;;;23.21;79.11;98123.38;5054517;27;104150;-73
2022/06/22 07:55:03;;;;;;;9.52;8.60;;;;;;;23.09;79.58;98126.66;5064417;27;103645;-73
2022/06/22 07:57:43;;;;;;;9.25;8.35;;;;;;;23.09;79.38;98117.75;5070976;27;103448;-74
2022/06/22 08:00:15;;;;;;;8.38;7.60;;;;;;;23.30;80.13;98112.19;5075302;27;102956;-77
2022/06/22 08:02:52;;;;;;;7.25;6.65;;;;;;;23.80;77.78;98121.59;5063900;27;102612;-74
2022/06/22 08:05:24;;;;;;;7.27;6.57;;;;;;;24.07;74.69;98125.06;5061737;27;103263;-76
2022/06/22 08:07:58;;;;;;;9.10;7.88;;;;;;;24.07;74.70;98115.13;5045700;27;103260;-74
2022/06/22 08:10:34;;;;;;;10.07;9.07;;;;;;;23.80;77.27;98113.50;5052183;27;102719;-74
2022/06/22 08:13:09;;;;;;;8.40;7.68;;;;;;;23.69;78.25;98116.00;5069002;27;102634;-75
2022/06/22 08:15:41;;;;;;;9.43;8.57;;;;;;;23.84;79.03;98119.28;5073226;27;103305;-75
2022/06/22 08:18:09;;;;;;;8.07;7.38;;;;;;;24.28;78.22;98122.16;5056751;27;103274;-74
2022/06/22 08:20:44;;;;;;;6.53;6.03;;;;;;;24.57;76.57;98135.16;5073720;27;102774;-75
2022/06/22 08:23:19;;;;;;;7.67;6.97;;;;;;;24.62;74.06;98139.91;5047306;27;104039;-74
2022/06/22 08:26:03;;;;;;;8.30;7.50;;;;;;;24.64;74.29;98138.69;5070300;27;103213;-74
2022/06/22 08:28:34;;;;;;;7.70;6.90;;;;;;;24.66;73.54;98143.84;5054038;27;103141;-74
2022/06/22 08:31:02;;;;;;;7.85;7.05;;;;;;;24.60;71.65;98142.00;5070884;27;102610;-74
2022/06/22 08:33:37;;;;;;;6.20;5.50;;;;;;;24.88;71.95;98144.41;5071063;27;102651;-74
2022/06/22 08:36:11;;;;;;;7.20;6.60;;;;;;;24.96;71.67;98142.28;5069654;27;102930;-74
2022/06/22 08:38:46;;;;;;;5.95;5.45;;;;;;;24.96;71.05;98141.47;5065808;27;103115;-74
2022/06/22 08:41:29;;;;;;;5.90;5.40;;;;;;;25.01;71.82;98138.97;5072713;27;102917;-74
2022/06/22 08:44:05;;;;;;;8.50;7.70;;;;;;;24.73;71.26;98142.78;5076702;27;103880;-74
2022/06/22 08:46:52;;;;;;;6.97;6.28;;;;;;;24.91;70.07;98143.97;5070850;27;102932;-76
2022/06/22 08:49:44;;;;;;;8.60;7.80;;;;;;;24.95;70.97;98145.22;5073390;27;103168;-74
2022/06/22 08:52:25;;;;;;;7.10;6.40;;;;;;;25.05;69.67;98146.41;5043715;27;102746;-74
2022/06/22 08:55:45;;;;;;;5.90;5.40;;;;;;;25.16;69.14;98156.53;5052330;27;103762;-74
2022/06/22 08:58:37;;;;;;;6.03;5.53;;;;;;;25.00;68.02;98159.75;5071103;27;103311;-74
2022/06/22 09:01:17;;;;;;;6.05;5.55;;;;;;;25.03;68.95;98158.47;5071031;27;103662;-74
2022/06/22 09:04:16;;;;;;;8.02;6.90;;;;;;;24.76;68.77;98158.56;5075562;27;103015;-74
2022/06/22 09:07:06;;;;;;;9.50;8.52;;;;;;;24.25;69.92;98164.94;5065053;27;102965;-76
2022/06/22 09:10:04;;;;;;;9.02;8.13;;;;;;;24.20;71.58;98165.56;5054068;27;103223;-74
2022/06/22 09:12:47;;;;;;;9.55;8.52;;;;;;;24.12;71.30;98163.06;5052130;27;103906;-74
2022/06/22 09:15:34;;;;;;;8.10;7.30;;;;;;;24.45;72.17;98169.25;5054850;27;102961;-75
2022/06/22 09:18:21;;;;;;;12.95;9.73;;;;;;;24.09;73.35;98166.16;5053983;27;102614;-75
2022/06/22 09:21:01;;;;;;;11.50;9.13;;;;;;;24.05;72.54;98170.31;5069760;27;103147;-75
2022/06/22 09:23:33;;;;;;;7.63;6.93;;;;;;;24.47;70.82;98180.69;5052550;27;103186;-73
2022/06/22 09:26:10;;;;;;;7.75;6.97;;;;;;;24.68;69.59;98177.69;5073075;27;104504;-75
2022/06/22 09:28:49;;;;;;;7.07;6.45;;;;;;;25.03;71.10;98177.41;5072300;27;102956;-75
2022/06/22 09:31:52;;;;;;;7.38;6.68;;;;;;;25.24;70.98;98177.06;5072760;27;103775;-75
2022/06/22 09:34:48;;;;;;;6.40;5.90;;;;;;;25.58;70.04;98179.41;5076936;27;103043;-76
2022/06/22 09:37:47;;;;;;;7.13;6.43;;;;;;;25.64;70.95;98178.53;5070292;27;102705;-74
2022/06/22 09:40:31;;;;;;;7.10;6.40;;;;;;;25.85;69.66;98174.63;5071392;27;102988;-74
2022/06/22 09:43:25;;;;;;;10.15;8.18;;;;;;;25.62;68.95;98174.38;5071118;27;103151;-74
2022/06/22 09:46:22;;;;;;;6.15;5.55;;;;;;;25.92;68.64;98176.22;5074092;27;105700;-77
2022/06/22 09:49:11;;;;;;;7.80;7.00;;;;;;;25.73;67.10;98177.22;5072012;27;102905;-74
2022/06/22 09:51:57;;;;;;;5.72;5.22;;;;;;;26.09;67.94;98178.38;5062878;27;102535;-75
2022/06/22 09:58:01;;;;;;;8.67;6.97;;;;;;;25.72;65.42;98178.25;5065236;27;102861;-75
2022/06/22 10:00:42;;;;;;;6.70;5.82;;;;;;;26.03;66.44;98185.50;5074754;27;102981;-76
2022/06/22 10:03:49;;;;;;;6.32;5.68;;;;;;;26.20;65.92;98189.34;5071314;27;102726;-74
2022/06/22 10:06:39;;;;;;;5.87;5.37;;;;;;;26.05;65.00;98188.00;5073492;27;103183;-75
2022/06/22 10:09:25;;;;;;;6.40;5.80;;;;;;;25.94;64.86;98193.06;5070263;27;102967;-75
2022/06/22 10:12:00;;;;;;;9.67;6.93;;;;;;;25.84;63.81;98195.44;5044316;27;103865;-75
2022/06/22 10:15:11;;;;;;;6.18;5.57;;;;;;;25.89;63.28;98192.91;5067810;27;103710;-75
2022/06/22 10:18:04;;;;;;;6.80;6.20;;;;;;;25.75;63.88;98190.50;5038501;27;103228;-76
2022/06/22 10:20:42;;;;;;;7.60;6.28;;;;;;;25.98;63.96;98189.91;5063469;27;103335;-74
2022/06/22 10:23:38;;;;;;;6.45;5.95;;;;;;;26.09;63.76;98198.16;5069341;27;102708;-74
2022/06/22 10:26:22;;;;;;;7.00;6.40;;;;;;;26.05;65.13;98198.84;5052272;27;103449;-75
2022/06/22 10:29:19;;;;;;;6.88;6.22;;;;;;;26.01;66.22;98203.84;5074442;27;103509;-76
2022/06/22 10:32:01;;;;;;;8.17;7.47;;;;;;;25.82;65.38;98202.13;5071705;27;103914;-76
2022/06/22 10:34:52;;;;;;;6.97;6.35;;;;;;;25.81;67.97;98205.88;5062148;27;102855;-76
2022/06/22 10:37:59;;;;;;;6.73;6.13;;;;;;;25.89;66.00;98216.41;5056157;27;104091;-76
2022/06/22 10:46:42;;;;;;;8.05;7.22;;;;;;;25.64;68.17;98232.63;5053575;27;103013;-76
2022/06/22 10:49:43;;;;;;;6.83;6.23;;;;;;;25.64;68.62;98231.78;5082979;27;103758;-75
2022/06/22 10:52:25;;;;;;;8.82;7.95;;;;;;;25.65;69.80;98234.28;5074052;27;102778;-76
2022/06/22 10:55:20;;;;;;;9.20;8.33;;;;;;;25.49;73.14;98239.38;5048693;27;104130;-76
2022/06/22 10:58:10;;;;;;;12.13;10.67;;;;;;;25.06;73.16;98249.94;5052696;27;103100;-75
2022/06/22 11:00:53;;;;;;;9.45;8.55;;;;;;;25.31;72.84;98253.56;5075731;27;102948;-76
2022/06/22 11:03:47;;;;;;;10.55;9.65;;;;;;;25.17;71.44;98243.84;5069244;27;103367;-76
2022/06/22 11:06:54;;;;;;;10.70;9.80;;;;;;;24.67;74.75;98246.25;5065421;27;103158;-75
2022/06/22 11:09:41;;;;;;;10.20;9.30;;;;;;;25.07;71.74;98246.16;5068783;27;102672;-76
2022/06/22 11:12:36;;;;;;;9.43;8.57;;;;;;;24.48;73.82;98240.88;5074419;27;104010;-76
2022/06/22 11:15:40;;;;;;;9.45;8.65;;;;;;;23.93;77.84;98244.81;5046423;27;104135;-76
2022/06/22 11:18:34;;;;;;;6.70;6.20;;;;;;;24.53;75.09;98260.84;5068494;27;103174;-76
2022/06/22 11:21:13;;;;;;;6.40;5.90;;;;;;;25.02;75.65;98265.72;5065878;27;102809;-76
2022/06/22 11:23:52;;;;;;;11.27;10.05;;;;;;;;;;5070152;27;102983;-76
2022/06/22 11:32:43;;;;;;;8.30;7.60;;;;;;;25.00;73.28;98273.22;5070558;27;103199;-75
2022/06/22 11:35:46;;;;;;;7.80;7.20;;;;;;;25.15;73.92;98272.97;5064073;27;103119;-75
2022/06/22 11:38:40;;;;;;;7.50;6.97;;;;;;;25.26;74.46;98266.91;5044761;27;104024;-74
2022/06/22 11:41:30;;;;;;;9.45;8.45;;;;;;;25.14;73.36;98268.59;5037740;27;103113;-75
2022/06/22 11:44:14;;;;;;;11.18;10.23;;;;;;;25.39;74.07;98258.72;5071209;27;102471;-75
2022/06/22 11:46:49;;;;;;;10.43;9.32;;;;;;;24.63;76.09;98255.81;5049169;27;104416;-74
2022/06/22 11:49:36;;;;;;;9.60;8.80;;;;;;;25.03;75.63;98261.16;5061882;27;103241;-75
2022/06/22 11:52:26;;;;;;;10.30;9.30;;;;;;;25.20;73.03;98273.16;5057675;27;104043;-77
2022/06/22 11:55:16;;;;;;;10.23;9.20;;;;;;;25.50;74.91;98270.75;5063459;27;103615;-76
2022/06/22 11:58:17;;;;;;;10.50;9.70;;;;;;;25.26;75.24;98266.91;5048795;27;104266;-75
2022/06/22 12:01:00;;;;;;;8.38;7.72;;;;;;;25.55;74.43;98266.38;5037212;27;104051;-75
2022/06/22 12:03:57;;;;;;;7.38;6.78;;;;;;;25.76;75.05;98252.53;5064471;27;103140;-74
2022/06/22 12:07:05;;;;;;;10.57;9.48;;;;;;;25.57;74.89;98258.06;5060162;27;105015;-75
2022/06/22 12:09:48;;;;;;;6.87;6.27;;;;;;;25.94;72.64;98249.88;5058797;27;104349;-73
2022/06/22 12:12:39;;;;;;;10.10;9.02;;;;;;;25.99;69.72;98248.41;5062836;27;104324;-74
2022/06/22 12:15:23;;;;;;;10.05;9.13;;;;;;;25.59;76.32;98239.72;5031695;27;103150;-79
2022/06/22 12:18:05;;;;;;;7.20;6.50;;;;;;;26.04;72.17;98233.19;5050955;27;103048;-78
2022/06/22 12:20:48;;;;;;;8.38;7.68;;;;;;;26.04;74.23;98225.06;5063617;27;103010;-76
2022/06/22 12:23:28;;;;;;;10.57;9.48;;;;;;;25.89;74.84;98217.25;5055317;27;103400;-79
2022/06/22 12:26:16;;;;;;;10.63;9.40;;;;;;;24.98;74.94;98233.97;5060056;27;103265;-78
2022/06/22 12:29:00;;;;;;;7.22;6.45;;;;;;;25.52;73.63;98228.94;5043821;27;102633;-75
2022/06/22 12:31:35;;;;;;;8.27;7.10;;;;;;;25.61;72.92;98227.66;5049418;27;102885;-76
2022/06/22 12:34:29;;;;;;;9.38;8.43;;;;;;;25.07;74.14;98228.09;5060447;27;104025;-78
2022/06/22 12:37:05;;;;;;;10.45;9.45;;;;;;;24.61;74.27;98230.91;5062172;27;103782;-77
2022/06/22 12:39:38;;;;;;;8.57;7.78;;;;;;;24.98;72.72;98220.44;5058054;27;104462;-77
2022/06/22 12:42:23;;;;;;;10.32;9.23;;;;;;;24.78;74.39;98210.50;5045955;27;103106;-76
2022/06/22 12:45:07;;;;;;;10.93;9.32;;;;;;;24.14;78.80;98204.19;5057823;27;103712;-75